Time;durP1;ratioP1;P1;durP2;ratioP2;P2;SDS_P1;SDS_P2;PMS_P1;PMS_P2;Temp;Humidity;BMP_temperature;BMP_pressure;BME280_temperature;BME280_humidity;BME280_pressure;Samples;Min_cycle;Max_cycle;Signal;HPM_P1;HPM_P2
2023/01/08 00:00:51;;;;;;;4.50;3.20;;;5.00;99.90;;;;;;4992254;28;20403;-73
2023/01/08 00:03:16;;;;;;;3.10;2.80;;;5.10;99.90;;;;;;4991375;28;20761;-73
2023/01/08 00:05:42;;;;;;;3.70;3.00;;;5.20;99.90;;;;;;4991669;28;20382;-73
2023/01/08 00:08:08;;;;;;;3.10;2.55;;;5.30;99.90;;;;;;4991567;28;20465;-74
2023/01/08 00:10:35;;;;;;;3.90;3.10;;;5.40;99.90;;;;;;4991850;28;20489;-74
2023/01/08 00:13:00;;;;;;;3.20;2.90;;;5.40;99.90;;;;;;4991170;28;20394;-73
2023/01/08 00:15:27;;;;;;;3.73;3.03;;;5.40;99.90;;;;;;4991863;28;20398;-73
2023/01/08 00:17:52;;;;;;;3.20;2.80;;;5.40;97.80;;;;;;4990235;28;20718;-73
2023/01/08 00:20:18;;;;;;;3.93;2.90;;;5.40;84.90;;;;;;4991812;28;20402;-73
2023/01/08 00:22:46;;;;;;;3.57;3.27;;;5.50;99.30;;;;;;4990770;28;20473;-73
2023/01/08 00:25:12;;;;;;;3.70;3.15;;;5.40;95.60;;;;;;5022890;28;20406;-73
2023/01/08 00:27:37;;;;;;;5.10;2.95;;;5.40;99.90;;;;;;4990031;28;20406;-74
2023/01/08 00:30:03;;;;;;;3.17;2.87;;;5.50;99.90;;;;;;4991570;28;20753;-73
2023/01/08 00:32:29;;;;;;;3.10;2.70;;;5.60;90.60;;;;;;4990969;28;20387;-72
2023/01/08 00:34:55;;;;;;;3.35;2.70;;;5.60;66.80;;;;;;4991028;28;20914;-73
2023/01/08 00:37:20;;;;;;;2.80;2.60;;;5.70;89.10;;;;;;4991090;28;20472;-73
2023/01/08 00:39:46;;;;;;;2.95;2.63;;;5.60;46.30;;;;;;4989990;28;20895;-73
2023/01/08 00:42:11;;;;;;;4.70;2.80;;;5.70;57.60;;;;;;4991515;28;20462;-73
2023/01/08 00:44:37;;;;;;;3.20;2.80;;;5.70;65.90;;;;;;4990594;28;20382;-73
2023/01/08 00:47:02;;;;;;;4.20;2.70;;;5.80;42.60;;;;;;4991353;28;20474;-73
2023/01/08 00:49:28;;;;;;;3.10;2.77;;;5.80;28.40;;;;;;4991179;28;20394;-73
2023/01/08 00:51:54;;;;;;;3.40;2.80;;;5.70;72.40;;;;;;4990851;28;20402;-73
2023/01/08 00:54:19;;;;;;;3.03;2.73;;;5.70;70.10;;;;;;4990317;28;20826;-73
2023/01/08 00:56:45;;;;;;;2.73;2.30;;;5.80;57.30;;;;;;4991284;28;20406;-73
2023/01/08 00:59:10;;;;;;;3.50;3.00;;;5.90;48.90;;;;;;4991403;28;20402;-73
2023/01/08 01:01:36;;;;;;;3.83;2.73;;;5.90;46.50;;;;;;4991190;28;20439;-73
2023/01/08 01:04:02;;;;;;;3.90;2.50;;;5.80;73.10;;;;;;4990042;28;20889;-73
2023/01/08 01:06:27;;;;;;;3.35;2.20;;;5.70;96.10;;;;;;4989764;28;20401;-72
2023/01/08 01:08:53;;;;;;;4.10;2.67;;;5.80;92.70;;;;;;4990652;28;20916;-73
2023/01/08 01:11:24;;;;;;;3.42;2.55;;;5.80;98.10;;;;;;4990515;28;20387;-73
2023/01/08 01:13:50;;;;;;;2.80;2.50;;;5.90;99.90;;;;;;4990274;28;20426;-73
2023/01/08 01:16:16;;;;;;;2.70;2.50;;;5.80;99.90;;;;;;4990956;28;20413;-72
2023/01/08 01:18:41;;;;;;;2.97;2.45;;;5.90;99.90;;;;;;4991141;28;20766;-73
2023/01/08 01:21:23;;;;;;;2.50;2.30;;;5.90;97.20;;;;;;4990599;28;20777;-73
2023/01/08 01:23:49;;;;;;;2.75;2.40;;;6.00;69.50;;;;;;5023709;22;20436;-71
2023/01/08 01:26:19;;;;;;;4.05;2.67;;;6.00;54.10;;;;;;5010368;28;20384;-71
2023/01/08 01:28:50;;;;;;;2.40;2.20;;;6.00;58.00;;;;;;5010117;28;20404;-71
2023/01/08 01:31:16;;;;;;;2.92;2.60;;;5.90;91.40;;;;;;5010050;28;20425;-71
2023/01/08 01:33:42;;;;;;;2.40;2.20;;;5.90;84.10;;;;;;4999650;28;20784;-71
2023/01/08 01:36:09;;;;;;;3.08;2.78;;;5.90;90.90;;;;;;4990685;28;20418;-71
2023/01/08 01:38:35;;;;;;;2.40;2.20;;;5.90;93.20;;;;;;4990559;28;20449;-71
2023/01/08 01:41:01;;;;;;;2.40;2.20;;;5.90;96.40;;;;;;4990177;28;20434;-71
2023/01/08 01:43:41;;;;;;;3.17;2.50;;;5.90;99.70;;;;;;4989664;28;20777;-70
2023/01/08 01:46:20;;;;;;;3.28;2.38;;;5.90;84.90;;;;;;4990531;28;20907;-70
2023/01/08 01:48:50;;;;;;;2.80;2.20;;;6.00;58.20;;;;;;4990492;28;20402;-70
2023/01/08 01:51:15;;;;;;;2.70;2.10;;;5.90;97.50;;;;;;4990276;28;20394;-70
2023/01/08 01:53:41;;;;;;;4.10;2.10;;;6.10;43.40;;;;;;4988368;28;20398;-70
2023/01/08 01:56:07;;;;;;;2.43;2.30;;;6.10;41.10;;;;;;4990087;28;20445;-70
2023/01/08 01:58:33;;;;;;;3.45;2.00;;;6.20;44.20;;;;;;4990141;28;20410;-71
2023/01/08 02:01:03;;;;;;;3.40;1.97;;;6.20;14.70;;;;;;4990498;28;20387;-70
2023/01/08 02:03:32;;;;;;;2.13;1.92;;;6.20;1.70;;;;;;4989521;28;20391;-70
2023/01/08 02:06:20;;;;;;;2.30;2.00;;;6.30;1.00;;;;;;4990187;28;20398;-70
2023/01/08 02:09:11;;;;;;;3.30;2.10;;;6.50;1.00;;;;;;4989896;28;20398;-70
2023/01/08 02:12:15;;;;;;;2.35;2.15;;;6.60;4.00;;;;;;4990427;28;20398;-71
2023/01/08 02:15:04;;;;;;;2.13;1.90;;;6.60;1.00;;;;;;4959324;28;20409;-72
2023/01/08 02:17:42;;;;;;;3.33;2.30;;;6.70;1.00;;;;;;4990326;28;20398;-71
2023/01/08 02:20:13;;;;;;;2.20;2.00;;;6.70;1.00;;;;;;4989893;28;20456;-70
2023/01/08 02:23:09;;;;;;;2.30;2.10;;;6.80;1.00;;;;;;4991473;28;20927;-70
2023/01/08 02:26:01;;;;;;;2.30;2.10;;;6.80;1.00;;;;;;4993313;28;20496;-70
2023/01/08 02:28:29;;;;;;;2.20;1.90;;;6.90;1.00;;;;;;4993836;28;20744;-71
2023/01/08 02:30:56;;;;;;;1.90;1.80;;;6.90;1.00;;;;;;4993429;28;20389;-70
2023/01/08 02:33:23;;;;;;;2.40;1.90;;;6.90;1.00;;;;;;4992554;28;20403;-70
2023/01/08 02:36:14;;;;;;;3.00;2.30;;;7.00;1.00;;;;;;4993303;28;20401;-70
2023/01/08 02:38:51;;;;;;;2.03;1.50;;;7.00;1.00;;;;;;4993450;28;20410;-71
2023/01/08 02:41:19;;;;;;;2.03;1.85;;;7.20;1.00;;;;;;4993604;28;20387;-71
2023/01/08 02:43:48;;;;;;;2.22;2.03;;;7.30;1.00;;;;;;4992459;28;20480;-72
2023/01/08 02:46:23;;;;;;;3.08;1.80;;;7.20;1.00;;;;;;4992990;28;20402;-71
2023/01/08 02:48:53;;;;;;;2.40;2.10;;;7.20;1.00;;;;;;4993512;28;20395;-72
2023/01/08 02:51:28;;;;;;;2.30;2.00;;;7.20;1.00;;;;;;4993667;28;20470;-72
2023/01/08 02:53:58;;;;;;;1.80;1.70;;;7.20;1.00;;;;;;4992553;28;20390;-72
2023/01/08 02:56:29;;;;;;;2.22;2.03;;;7.20;1.00;;;;;;4992983;28;20402;-72
2023/01/08 02:58:57;;;;;;;3.47;1.90;;;7.20;1.00;;;;;;4993278;28;20473;-72
2023/01/08 03:01:27;;;;;;;3.03;2.00;;;7.20;1.00;;;;;;4993390;28;20394;-71
2023/01/08 03:03:56;;;;;;;3.40;2.35;;;7.10;1.00;;;;;;4992386;28;20445;-72
2023/01/08 03:06:24;;;;;;;2.08;1.98;;;7.10;90.00;;;;;;5007973;28;20397;-71
2023/01/08 03:08:53;;;;;;;2.20;2.00;;;7.10;99.90;;;;;;4992820;28;20823;-71
2023/01/08 03:11:21;;;;;;;2.97;1.90;;;7.10;83.40;;;;;;4993401;28;20386;-73
2023/01/08 03:14:08;;;;;;;2.63;1.95;;;7.20;99.90;;;;;;4992482;28;20494;-72
2023/01/08 03:16:44;;;;;;;3.22;2.00;;;7.30;99.90;;;;;;4992524;28;20414;-71
2023/01/08 03:19:21;;;;;;;2.97;1.98;;;7.80;1.00;;;;;;4991744;28;20473;-71
2023/01/08 03:21:49;;;;;;;2.28;1.80;;;8.50;1.00;;;;;;4993077;28;20753;-71
2023/01/08 03:24:25;;;;;;;3.00;1.50;;;9.20;1.00;;;;;;4990639;28;20391;-71
2023/01/08 03:26:55;;;;;;;2.47;1.60;;;9.30;1.00;;;;;;4992780;28;21084;-72
2023/01/08 03:29:23;;;;;;;1.88;1.40;;;9.20;11.30;;;;;;4992419;28;20421;-72
2023/01/08 03:31:50;;;;;;;2.30;1.50;;;9.30;30.50;;;;;;4992529;28;20390;-72
2023/01/08 03:34:21;;;;;;;2.13;1.50;;;9.50;1.00;;;;;;4991152;28;20390;-73
2023/01/08 03:36:53;;;;;;;2.40;1.23;;;9.70;31.20;;;;;;4992516;28;20477;-72
2023/01/08 03:39:36;;;;;;;3.78;1.40;;;9.70;1.00;;;;;;4992362;28;20405;-71
2023/01/08 03:42:08;;;;;;;3.40;1.80;;;9.50;91.60;;;;;;4992400;28;20478;-71
2023/01/08 03:44:33;;;;;;;2.10;1.50;;;9.30;99.90;;;;;;4976941;28;20398;-72
2023/01/08 03:47:03;;;;;;;1.60;1.40;;;9.20;99.90;;;;;;4992367;28;20480;-72
2023/01/08 03:49:29;;;;;;;1.67;1.40;;;9.10;99.90;;;;;;4990936;28;20394;-72
2023/01/08 03:51:55;;;;;;;2.03;1.83;;;9.10;99.90;;;;;;4992205;28;20743;-72
2023/01/08 03:54:24;;;;;;;2.00;1.80;;;9.00;99.90;;;;;;4991075;28;20406;-72
2023/01/08 03:56:49;;;;;;;2.60;1.75;;;8.80;99.90;;;;;;4989965;28;20407;-72
2023/01/08 03:59:16;;;;;;;3.07;1.80;;;8.80;99.90;;;;;;4987673;28;20401;-72
2023/01/08 04:01:42;;;;;;;2.47;2.20;;;8.80;99.90;;;;;;4991807;28;20457;-72
2023/01/08 04:04:07;;;;;;;2.22;2.03;;;8.70;99.90;;;;;;4991436;28;20956;-72
2023/01/08 04:06:33;;;;;;;1.83;1.73;;;8.40;99.90;;;;;;4974448;28;20473;-72
2023/01/08 04:08:59;;;;;;;2.57;2.10;;;8.30;99.90;;;;;;4991691;28;20402;-72
2023/01/08 04:11:25;;;;;;;2.88;2.30;;;8.20;99.90;;;;;;4991380;28;20493;-72
2023/01/08 04:13:50;;;;;;;2.80;2.40;;;8.20;99.90;;;;;;4990634;28;20409;-72
2023/01/08 04:16:16;;;;;;;3.10;2.30;;;8.10;99.90;;;;;;4991581;28;20844;-72
2023/01/08 04:18:41;;;;;;;2.93;2.67;;;7.90;99.90;;;;;;4991529;28;20413;-72
2023/01/08 04:21:07;;;;;;;3.20;2.30;;;8.00;99.90;;;;;;4991411;28;20476;-72
2023/01/08 04:23:32;;;;;;;3.15;2.63;;;7.90;99.90;;;;;;4990368;28;20860;-72
2023/01/08 04:25:58;;;;;;;3.60;3.10;;;7.80;99.90;;;;;;4991412;28;20386;-72
2023/01/08 04:28:24;;;;;;;2.90;2.70;;;7.90;99.90;;;;;;4991667;28;20877;-72
2023/01/08 04:30:50;;;;;;;4.33;2.60;;;7.80;99.90;;;;;;4991483;28;20430;-72
2023/01/08 04:33:15;;;;;;;2.40;2.20;;;7.90;99.90;;;;;;4990799;28;20768;-72
2023/01/08 04:35:41;;;;;;;3.50;2.25;;;7.90;99.90;;;;;;4991459;28;20489;-72
2023/01/08 04:38:07;;;;;;;2.00;1.77;;;8.00;99.90;;;;;;4991845;28;20889;-72
2023/01/08 04:40:33;;;;;;;3.15;2.10;;;8.30;99.90;;;;;;4991487;28;20397;-72
2023/01/08 04:42:59;;;;;;;2.95;1.95;;;8.30;99.90;;;;;;4990752;28;20398;-72
2023/01/08 04:45:25;;;;;;;2.70;2.10;;;8.20;99.90;;;;;;4991434;28;20402;-72
2023/01/08 04:47:57;;;;;;;2.63;2.03;;;8.10;99.90;;;;;;4991657;28;20477;-72
2023/01/08 04:50:23;;;;;;;2.70;2.50;;;8.10;99.90;;;;;;4991275;28;20406;-72
2023/01/08 04:52:49;;;;;;;3.72;2.25;;;8.00;99.90;;;;;;4990623;28;20422;-72
2023/01/08 04:55:15;;;;;;;2.60;2.05;;;8.00;99.90;;;;;;4991259;28;20924;-72
2023/01/08 04:57:40;;;;;;;2.28;2.08;;;7.90;99.90;;;;;;4991338;28;20465;-72
2023/01/08 05:00:07;;;;;;;2.40;2.20;;;7.90;99.90;;;;;;4990928;28;20390;-72
2023/01/08 05:02:32;;;;;;;2.80;2.20;;;8.00;99.90;;;;;;4990634;28;20469;-72
2023/01/08 05:04:58;;;;;;;2.07;1.80;;;8.00;99.90;;;;;;4990977;28;20417;-71
2023/01/08 05:07:23;;;;;;;1.70;1.60;;;8.00;99.90;;;;;;4991375;28;20382;-71
2023/01/08 05:09:49;;;;;;;2.53;1.97;;;8.00;99.90;;;;;;4991106;28;20769;-71
2023/01/08 05:12:14;;;;;;;1.90;1.80;;;8.00;99.90;;;;;;4991178;28;20386;-71
2023/01/08 05:14:40;;;;;;;2.10;1.90;;;8.00;99.90;;;;;;4990145;28;20399;-71
2023/01/08 05:17:05;;;;;;;2.10;1.90;;;8.10;99.90;;;;;;4991111;28;20417;-73
2023/01/08 05:19:31;;;;;;;3.00;2.00;;;8.00;99.90;;;;;;4989930;28;20406;-72
2023/01/08 05:21:57;;;;;;;1.97;1.60;;;8.10;99.90;;;;;;4991050;28;20386;-72
2023/01/08 05:24:22;;;;;;;2.03;1.80;;;8.00;99.90;;;;;;4989656;28;20414;-72
2023/01/08 05:26:48;;;;;;;2.63;1.90;;;8.10;99.90;;;;;;4991021;28;20496;-72
2023/01/08 05:29:13;;;;;;;2.15;1.95;;;8.10;99.90;;;;;;4991343;28;20398;-72
2023/01/08 05:31:39;;;;;;;2.40;1.90;;;8.10;99.90;;;;;;4973607;28;20399;-72
2023/01/08 05:34:04;;;;;;;2.15;1.95;;;8.10;99.90;;;;;;4989759;28;20465;-72
2023/01/08 05:36:30;;;;;;;1.73;1.63;;;8.20;99.90;;;;;;4990886;28;20761;-72
2023/01/08 05:38:55;;;;;;;1.80;1.70;;;8.00;99.90;;;;;;4990860;28;20410;-72
2023/01/08 05:41:21;;;;;;;1.90;1.30;;;8.10;99.90;;;;;;4990993;28;20427;-72
2023/01/08 05:43:46;;;;;;;1.40;1.30;;;8.40;99.90;;;;;;4990335;28;20382;-72
2023/01/08 05:46:12;;;;;;;1.90;1.02;;;8.40;99.90;;;;;;4990167;28;20394;-71
2023/01/08 05:48:38;;;;;;;1.40;1.30;;;8.50;99.90;;;;;;4990784;28;20395;-72
2023/01/08 05:51:04;;;;;;;1.75;1.30;;;8.60;99.90;;;;;;4990849;28;20405;-71
2023/01/08 05:53:33;;;;;;;1.70;0.85;;;8.60;99.90;;;;;;4989486;28;20406;-72
2023/01/08 05:56:04;;;;;;;0.90;0.80;;;9.10;99.90;;;;;;4990766;28;20427;-72
2023/01/08 05:58:30;;;;;;;0.70;0.70;;;9.20;99.90;;;;;;4990596;28;20414;-72
2023/01/08 06:01:05;;;;;;;0.70;0.60;;;9.40;99.90;;;;;;4977081;28;20911;-72
2023/01/08 06:03:31;;;;;;;2.30;0.90;;;9.70;99.90;;;;;;4991700;28;20386;-72
2023/01/08 06:06:04;;;;;;;1.00;0.60;;;9.90;99.90;;;;;;4973577;28;20406;-72
2023/01/08 06:08:30;;;;;;;0.77;0.50;;;9.90;99.90;;;;;;4982876;28;20485;-72
2023/01/08 06:11:01;;;;;;;1.50;0.50;;;9.90;99.90;;;;;;4989590;28;20483;-72
2023/01/08 06:13:27;;;;;;;0.70;0.50;;;10.00;99.90;;;;;;4990485;28;20411;-72
2023/01/08 06:15:53;;;;;;;0.93;0.60;;;10.10;99.90;;;;;;4974884;28;20400;-72
2023/01/08 06:18:18;;;;;;;1.00;0.50;;;10.10;99.90;;;;;;4974739;28;20481;-72
2023/01/08 06:20:43;;;;;;;0.60;0.60;;;10.10;99.90;;;;;;4985188;28;20395;-72
2023/01/08 06:23:09;;;;;;;0.50;0.50;;;10.10;36.70;;;;;;4993388;28;20397;-72
2023/01/08 06:25:35;;;;;;;0.53;0.50;;;10.10;99.90;;;;;;4994193;28;20433;-72
2023/01/08 06:28:02;;;;;;;0.63;0.50;;;10.10;1.00;;;;;;4994076;28;20390;-72
2023/01/08 06:30:27;;;;;;;0.75;0.60;;;10.30;1.00;;;;;;4994111;28;20972;-72
2023/01/08 06:32:57;;;;;;;0.60;0.50;;;10.30;22.80;;;;;;4986438;28;20463;-72
2023/01/08 06:35:22;;;;;;;0.75;0.50;;;10.30;1.00;;;;;;4992919;28;20402;-72
2023/01/08 06:37:48;;;;;;;0.57;0.50;;;10.20;2.60;;;;;;4993845;28;20415;-71
2023/01/08 06:40:13;;;;;;;0.70;0.50;;;10.10;23.60;;;;;;4993639;28;20470;-72
2023/01/08 06:42:39;;;;;;;1.60;0.60;;;10.00;99.90;;;;;;4993200;28;20722;-72
2023/01/08 06:45:06;;;;;;;0.50;0.50;;;9.90;99.90;;;;;;4993872;28;20422;-70
2023/01/08 06:47:32;;;;;;;0.63;0.50;;;9.70;99.90;;;;;;4991194;28;20410;-72
2023/01/08 06:49:58;;;;;;;0.77;0.60;;;9.60;99.90;;;;;;4993787;28;20398;-73
2023/01/08 06:52:24;;;;;;;0.80;0.60;;;9.70;99.90;;;;;;4975861;28;20461;-70
2023/01/08 06:54:49;;;;;;;1.10;0.60;;;9.60;99.90;;;;;;4993261;28;20399;-73
2023/01/08 06:57:15;;;;;;;0.50;0.40;;;9.40;99.90;;;;;;4993093;28;20410;-72
2023/01/08 06:59:40;;;;;;;0.70;0.60;;;9.60;99.90;;;;;;4993620;28;20440;-74
2023/01/08 07:02:09;;;;;;;0.80;0.50;;;9.60;99.90;;;;;;4993211;28;20472;-73
2023/01/08 07:04:34;;;;;;;0.40;0.40;;;9.40;99.90;;;;;;4992732;28;20390;-72
2023/01/08 07:07:00;;;;;;;0.60;0.50;;;9.60;99.90;;;;;;4993110;28;20455;-73
2023/01/08 07:09:25;;;;;;;0.90;0.50;;;9.60;99.90;;;;;;4992225;28;20905;-70
2023/01/08 07:11:51;;;;;;;1.00;0.50;;;9.50;99.90;;;;;;4993121;28;20494;-71
2023/01/08 07:14:16;;;;;;;0.47;0.47;;;9.50;99.90;;;;;;4992261;28;20405;-71
2023/01/08 07:16:42;;;;;;;0.60;0.60;;;9.60;99.90;;;;;;4993045;28;20398;-71
2023/01/08 07:19:08;;;;;;;0.60;0.50;;;9.60;99.90;;;;;;4993178;28;20386;-71
2023/01/08 07:21:33;;;;;;;0.70;0.50;;;9.90;60.30;;;;;;4993042;28;20418;-70
2023/01/08 07:23:59;;;;;;;0.90;0.50;;;9.80;99.90;;;;;;4982293;28;20394;-71
2023/01/08 07:26:24;;;;;;;0.60;0.50;;;9.80;99.90;;;;;;4993020;28;20445;-71
2023/01/08 07:28:50;;;;;;;0.60;0.50;;;9.80;99.90;;;;;;4993066;28;20402;-71
2023/01/08 07:31:15;;;;;;;0.60;0.50;;;9.70;99.90;;;;;;4992714;28;20421;-71
2023/01/08 07:33:41;;;;;;;0.90;0.70;;;9.70;99.90;;;;;;4991935;28;20399;-72
2023/01/08 07:36:07;;;;;;;1.23;0.57;;;9.70;99.90;;;;;;4992876;28;20469;-71
2023/01/08 07:38:32;;;;;;;1.00;0.70;;;9.70;99.90;;;;;;4992781;28;20406;-71
2023/01/08 07:40:58;;;;;;;0.90;0.65;;;9.60;99.90;;;;;;4992313;28;20475;-72
2023/01/08 07:43:24;;;;;;;1.10;0.70;;;9.60;99.90;;;;;;4992056;28;20394;-72
2023/01/08 07:45:50;;;;;;;0.50;0.40;;;9.50;99.90;;;;;;4992887;28;20387;-72
2023/01/08 07:48:16;;;;;;;1.60;0.60;;;9.50;99.90;;;;;;4992592;28;20394;-72
2023/01/08 07:50:42;;;;;;;1.50;0.80;;;9.60;99.90;;;;;;4992742;28;20378;-71
2023/01/08 07:53:10;;;;;;;1.00;0.70;;;9.70;99.90;;;;;;4976796;28;20784;-71
2023/01/08 07:55:35;;;;;;;1.15;0.60;;;9.80;99.90;;;;;;4992584;28;20390;-71
2023/01/08 07:58:09;;;;;;;1.80;0.60;;;9.70;99.90;;;;;;4992183;28;20407;-71
2023/01/08 08:00:35;;;;;;;0.98;0.80;;;9.70;99.90;;;;;;4992447;28;20394;-71
2023/01/08 08:03:05;;;;;;;0.70;0.60;;;9.70;99.90;;;;;;4991535;28;20386;-71
2023/01/08 08:05:31;;;;;;;0.88;0.68;;;9.80;99.90;;;;;;4992692;28;20445;-71
2023/01/08 08:07:57;;;;;;;0.90;0.60;;;9.80;99.90;;;;;;4992180;28;20406;-71
2023/01/08 08:10:22;;;;;;;0.80;0.70;;;9.80;93.20;;;;;;4991939;28;20461;-71
2023/01/08 08:12:48;;;;;;;1.10;0.60;;;10.00;99.90;;;;;;4991232;28;20402;-70
2023/01/08 08:15:14;;;;;;;1.00;0.60;;;10.00;70.90;;;;;;4974973;28;20489;-72
2023/01/08 08:17:44;;;;;;;0.80;0.80;;;10.10;4.60;;;;;;4992100;28;20824;-72
2023/01/08 08:20:09;;;;;;;0.70;0.60;;;10.20;1.00;;;;;;4991783;28;20382;-72
2023/01/08 08:22:35;;;;;;;1.00;0.68;;;10.10;90.80;;;;;;4991048;28;20726;-72
2023/01/08 08:25:01;;;;;;;0.80;0.50;;;10.30;99.90;;;;;;4991712;28;20481;-72
2023/01/08 08:27:26;;;;;;;1.08;0.70;;;10.10;99.90;;;;;;4991534;28;20409;-71
2023/01/08 08:29:51;;;;;;;0.53;0.50;;;10.30;21.70;;;;;;4991866;28;20887;-72
2023/01/08 08:32:17;;;;;;;1.00;0.50;;;10.30;28.40;;;;;;4991745;28;20448;-72
2023/01/08 08:34:43;;;;;;;1.50;0.70;;;10.20;47.80;;;;;;4991034;28;20887;-72
2023/01/08 08:37:08;;;;;;;0.60;0.60;;;10.30;8.50;;;;;;4991552;28;20403;-72
2023/01/08 08:39:35;;;;;;;0.75;0.75;;;10.20;52.50;;;;;;4991581;28;20402;-72
2023/01/08 08:42:00;;;;;;;1.13;0.80;;;10.20;72.90;;;;;;4991310;28;20398;-72
2023/01/08 08:44:26;;;;;;;1.20;0.90;;;10.20;49.90;;;;;;4990715;28;20391;-72
2023/01/08 08:46:51;;;;;;;0.67;0.60;;;10.10;89.60;;;;;;4991672;28;20390;-72
2023/01/08 08:49:17;;;;;;;0.70;0.50;;;10.00;93.00;;;;;;4991560;28;20390;-72
2023/01/08 08:51:42;;;;;;;0.68;0.50;;;10.00;79.50;;;;;;4991171;28;20485;-72
2023/01/08 08:54:09;;;;;;;0.73;0.60;;;10.00;39.10;;;;;;4990596;28;20391;-72
2023/01/08 08:56:35;;;;;;;0.70;0.55;;;10.00;36.20;;;;;;4991487;28;20744;-70
2023/01/08 08:59:00;;;;;;;0.80;0.50;;;10.00;71.00;;;;;;4991163;28;20418;-72
2023/01/08 09:01:26;;;;;;;0.50;0.40;;;9.90;34.10;;;;;;4991093;28;20434;-72
2023/01/08 09:03:51;;;;;;;0.70;0.50;;;9.90;99.90;;;;;;4990654;28;20385;-72
2023/01/08 09:06:17;;;;;;;0.50;0.47;;;9.90;99.90;;;;;;4991179;28;20985;-72
2023/01/08 09:08:43;;;;;;;0.70;0.50;;;9.80;99.90;;;;;;4991286;28;20511;-70
2023/01/08 09:11:08;;;;;;;1.00;0.70;;;9.70;99.90;;;;;;4991222;28;20393;-70
2023/01/08 09:13:36;;;;;;;1.05;0.47;;;9.70;99.90;;;;;;4990276;28;20485;-72
2023/01/08 09:16:02;;;;;;;0.70;0.50;;;9.60;99.90;;;;;;4991032;28;20913;-71
2023/01/08 09:18:27;;;;;;;0.70;0.40;;;9.60;99.90;;;;;;4990945;28;20425;-71
2023/01/08 09:20:53;;;;;;;0.70;0.47;;;9.60;99.90;;;;;;4990004;28;20401;-71
2023/01/08 09:23:18;;;;;;;0.60;0.40;;;9.60;99.90;;;;;;4990169;28;20460;-70
2023/01/08 09:25:44;;;;;;;0.70;0.60;;;9.60;99.90;;;;;;4991118;28;20873;-70
2023/01/08 09:28:11;;;;;;;1.70;0.50;;;9.50;99.90;;;;;;4990749;28;20489;-71
2023/01/08 09:30:37;;;;;;;0.80;0.60;;;9.40;99.90;;;;;;4991239;28;20390;-71
2023/01/08 09:33:04;;;;;;;0.77;0.65;;;9.40;99.90;;;;;;4993286;28;20765;-71
2023/01/08 09:35:31;;;;;;;1.58;0.50;;;9.30;99.90;;;;;;4995193;28;20382;-71
2023/01/08 09:37:56;;;;;;;0.60;0.40;;;9.20;99.90;;;;;;4994888;28;20796;-71
2023/01/08 09:40:27;;;;;;;0.50;0.40;;;9.30;99.90;;;;;;4995033;28;20394;-71
2023/01/08 09:42:57;;;;;;;0.60;0.47;;;9.30;99.90;;;;;;4993994;28;20413;-71
2023/01/08 09:45:35;;;;;;;0.40;0.30;;;9.30;99.90;;;;;;4994963;28;20414;-72
2023/01/08 09:48:05;;;;;;;0.50;0.38;;;9.40;99.90;;;;;;4994760;28;20879;-71
2023/01/08 09:50:33;;;;;;;0.40;0.30;;;9.60;99.90;;;;;;4977522;28;20406;-70
2023/01/08 09:52:59;;;;;;;0.40;0.30;;;9.70;99.90;;;;;;4993595;28;20402;-71
2023/01/08 09:55:30;;;;;;;0.40;0.30;;;9.70;99.90;;;;;;4994829;28;20390;-71
2023/01/08 09:57:55;;;;;;;0.70;0.30;;;9.70;99.90;;;;;;4994856;28;20433;-71
2023/01/08 10:00:29;;;;;;;0.40;0.30;;;9.80;82.10;;;;;;4994588;28;20476;-71
2023/01/08 10:02:55;;;;;;;0.60;0.40;;;9.80;90.10;;;;;;4993730;28;20456;-71
2023/01/08 10:05:21;;;;;;;0.40;0.30;;;9.90;58.80;;;;;;4994610;28;20450;-71
2023/01/08 10:07:47;;;;;;;0.40;0.30;;;9.90;90.50;;;;;;4994429;28;20386;-71
2023/01/08 10:10:26;;;;;;;0.60;0.43;;;9.90;99.90;;;;;;4994121;28;20406;-71
2023/01/08 10:12:53;;;;;;;0.40;0.30;;;9.90;99.90;;;;;;4993472;28;20405;-71
2023/01/08 10:15:20;;;;;;;0.50;0.40;;;9.80;99.90;;;;;;4994362;28;20757;-71
2023/01/08 10:18:09;;;;;;;0.40;0.40;;;9.80;99.90;;;;;;4994362;28;20527;-71
2023/01/08 10:20:34;;;;;;;0.70;0.50;;;9.80;99.90;;;;;;4994106;28;20398;-71
2023/01/08 10:23:13;;;;;;;0.60;0.40;;;9.90;99.90;;;;;;4993133;28;20402;-72
2023/01/08 10:25:53;;;;;;;0.60;0.40;;;10.00;30.00;;;;;;4993837;28;20413;-71
2023/01/08 10:28:31;;;;;;;0.40;0.30;;;10.00;91.40;;;;;;4994362;28;20845;-72
2023/01/08 10:31:06;;;;;;;0.40;0.30;;;10.00;99.90;;;;;;4994363;28;20413;-71
2023/01/08 10:33:40;;;;;;;0.80;0.40;;;9.90;99.90;;;;;;4993232;28;20880;-72
2023/01/08 10:36:07;;;;;;;0.80;0.50;;;10.00;99.90;;;;;;4976829;28;20438;-71
2023/01/08 10:38:36;;;;;;;0.60;0.40;;;9.90;99.90;;;;;;4976405;28;20782;-71
2023/01/08 10:41:09;;;;;;;0.90;0.60;;;9.90;99.90;;;;;;4993777;28;20398;-71
2023/01/08 10:43:55;;;;;;;0.80;0.70;;;9.90;99.90;;;;;;4993147;28;20390;-71
2023/01/08 10:46:25;;;;;;;0.50;0.38;;;9.80;99.90;;;;;;4994012;28;20811;-72
2023/01/08 10:48:54;;;;;;;0.90;0.40;;;9.80;99.90;;;;;;4993816;28;20419;-71
2023/01/08 10:51:22;;;;;;;0.80;0.50;;;9.80;99.90;;;;;;4993502;28;20402;-72
2023/01/08 10:53:48;;;;;;;0.70;0.55;;;9.70;99.90;;;;;;4992652;28;20402;-71
2023/01/08 10:56:42;;;;;;;0.80;0.30;;;9.80;99.90;;;;;;4993698;28;20387;-72
2023/01/08 10:59:22;;;;;;;0.50;0.30;;;9.90;99.90;;;;;;4993422;28;20461;-70
2023/01/08 11:01:49;;;;;;;0.43;0.30;;;9.90;91.80;;;;;;4993518;28;20391;-71
2023/01/08 11:04:37;;;;;;;0.40;0.30;;;9.90;99.90;;;;;;4992372;28;20441;-70
2023/01/08 11:07:05;;;;;;;0.40;0.30;;;10.00;61.70;;;;;;4993225;28;20493;-71
2023/01/08 11:09:33;;;;;;;0.55;0.40;;;10.00;75.70;;;;;;4991934;28;20784;-71
2023/01/08 11:11:59;;;;;;;0.60;0.50;;;10.00;99.90;;;;;;4993439;28;20387;-71
2023/01/08 11:14:33;;;;;;;0.63;0.50;;;10.10;99.90;;;;;;4992371;28;20395;-70
2023/01/08 11:17:01;;;;;;;0.60;0.40;;;10.10;99.90;;;;;;4993152;28;20387;-71
2023/01/08 11:19:31;;;;;;;0.50;0.40;;;10.10;99.90;;;;;;4973838;28;20918;-71
2023/01/08 11:22:15;;;;;;;0.40;0.30;;;10.10;99.90;;;;;;4988915;28;20402;-71
2023/01/08 11:24:41;;;;;;;0.40;0.30;;;10.10;99.90;;;;;;4992274;28;20436;-72
2023/01/08 11:27:25;;;;;;;0.60;0.40;;;10.20;99.90;;;;;;4976529;28;20405;-71
2023/01/08 11:29:57;;;;;;;0.60;0.40;;;10.20;99.90;;;;;;4975569;28;20413;-72
2023/01/08 11:32:34;;;;;;;0.60;0.47;;;10.20;99.90;;;;;;4992882;28;20436;-71
2023/01/08 11:35:07;;;;;;;1.50;0.30;;;10.20;99.90;;;;;;4992610;28;20394;-71
2023/01/08 11:37:37;;;;;;;0.50;0.30;;;10.10;99.90;;;;;;4992852;28;20480;-72
2023/01/08 11:40:14;;;;;;;0.50;0.50;;;10.10;99.90;;;;;;4993130;28;20367;-72
2023/01/08 11:43:11;;;;;;;0.50;0.40;;;10.20;99.90;;;;;;4992165;28;20374;-71
2023/01/08 11:45:59;;;;;;;0.50;0.40;;;10.10;99.90;;;;;;4973288;28;20391;-72
2023/01/08 11:48:46;;;;;;;0.50;0.40;;;10.20;99.90;;;;;;4973362;28;20743;-71
2023/01/08 11:51:33;;;;;;;0.50;0.40;;;10.00;99.90;;;;;;4973100;28;20885;-71
2023/01/08 11:54:22;;;;;;;0.50;0.30;;;10.00;99.90;;;;;;4979869;28;20398;-71
2023/01/08 11:57:13;;;;;;;0.50;0.40;;;10.00;99.90;;;;;;4981808;28;20469;-72
2023/01/08 12:00:16;;;;;;;0.50;0.30;;;10.00;99.90;;;;;;4992159;28;20403;-72
2023/01/08 12:02:51;;;;;;;0.50;0.30;;;10.10;99.90;;;;;;4931394;29;20399;-72
2023/01/08 12:05:45;;;;;;;0.57;0.40;;;10.00;99.90;;;;;;4984663;28;20391;-72
2023/01/08 12:08:14;;;;;;;0.50;0.40;;;10.00;99.90;;;;;;4992253;28;20390;-73
2023/01/08 12:11:19;;;;;;;0.80;0.40;;;10.00;99.90;;;;;;4992137;28;20406;-73
2023/01/08 12:14:09;;;;;;;0.50;0.40;;;10.00;99.90;;;;;;4991560;28;20399;-73
2023/01/08 12:16:44;;;;;;;0.70;0.50;;;10.00;99.90;;;;;;4992199;28;20868;-72
2023/01/08 12:19:19;;;;;;;0.50;0.40;;;10.00;99.90;;;;;;4991661;28;20414;-71
2023/01/08 12:21:59;;;;;;;0.70;0.40;;;10.00;99.90;;;;;;4991893;28;20421;-71
2023/01/08 12:25:01;;;;;;;0.80;0.40;;;9.90;99.90;;;;;;4991508;28;20889;-71
2023/01/08 12:27:27;;;;;;;0.70;0.60;;;9.80;99.90;;;;;;4991571;28;20398;-71
2023/01/08 12:30:20;;;;;;;0.60;0.50;;;9.80;99.90;;;;;;4992016;28;20910;-71
2023/01/08 12:32:53;;;;;;;1.40;0.60;;;9.80;99.90;;;;;;4991123;28;20394;-71
2023/01/08 12:35:24;;;;;;;0.85;0.50;;;9.60;99.90;;;;;;4991605;28;20450;-72
2023/01/08 12:38:13;;;;;;;0.75;0.60;;;9.60;99.90;;;;;;4991756;28;20411;-71
2023/01/08 12:40:58;;;;;;;1.23;1.10;;;9.60;99.90;;;;;;4992068;28;20916;-72
2023/01/08 12:43:30;;;;;;;1.00;0.50;;;9.60;99.90;;;;;;4991260;28;20382;-72
2023/01/08 12:45:59;;;;;;;0.90;0.70;;;9.60;99.90;;;;;;4991476;28;20801;-72
2023/01/08 12:48:28;;;;;;;0.60;0.50;;;9.60;99.90;;;;;;4991365;28;20873;-71
2023/01/08 12:51:05;;;;;;;1.38;0.60;;;9.60;99.90;;;;;;4990934;28;20417;-71
2023/01/08 12:53:40;;;;;;;1.50;0.60;;;9.60;99.90;;;;;;4990781;28;20394;-72
2023/01/08 12:56:22;;;;;;;0.98;0.60;;;9.50;99.90;;;;;;4991533;28;20398;-72
2023/01/08 12:58:58;;;;;;;0.82;0.40;;;9.40;99.90;;;;;;4991483;28;20892;-72
2023/01/08 13:01:33;;;;;;;0.82;0.50;;;9.50;99.90;;;;;;4991187;28;20405;-72
2023/01/08 13:04:00;;;;;;;0.80;0.50;;;9.40;99.90;;;;;;4990601;28;20386;-72
2023/01/08 13:06:26;;;;;;;0.55;0.40;;;9.50;99.90;;;;;;4990427;28;20473;-73
2023/01/08 13:08:56;;;;;;;0.90;0.55;;;9.40;99.90;;;;;;4990482;28;20405;-74